Time;durP1;ratioP1;P1;durP2;ratioP2;P2;SDS_P1;SDS_P2;PMS_P1;PMS_P2;Temp;Humidity;BMP_temperature;BMP_pressure;BME280_temperature;BME280_humidity;BME280_pressure;Samples;Min_cycle;Max_cycle;Signal;HPM_P1;HPM_P2
2021/05/06 00:04:38;;;;;;;0.73;0.63;;;;;;;4.27;90.09;98711.03;5078429;28;20246;-73
2021/05/06 00:10:27;;;;;;;0.63;0.63;;;;;;;4.15;90.54;98708.44;5080599;28;20198;-73
2021/05/06 00:32:21;;;;;;;0.60;0.60;;;;;;;3.82;91.20;98702.00;5037239;28;20257;-73
2021/05/06 00:34:49;;;;;;;1.13;0.70;;;;;;;3.83;90.95;98706.34;5079514;28;20215;-74
2021/05/06 00:37:18;;;;;;;0.70;0.40;;;;;;;3.90;91.14;98704.94;5080666;28;20196;-73
2021/05/06 00:39:49;;;;;;;0.70;0.67;;;;;;;3.84;91.54;98718.66;5084671;28;20203;-73
2021/05/06 00:45:53;;;;;;;0.70;0.70;;;;;;;3.78;91.40;98710.31;5049627;28;20216;-73
2021/05/06 00:54:23;;;;;;;4.63;0.70;;;;;;;3.63;92.15;98706.94;5088948;28;20216;-72
2021/05/06 00:57:01;;;;;;;0.73;0.67;;;;;;;3.73;91.37;98718.63;5105930;27;20249;-73
2021/05/06 01:02:38;;;;;;;2.40;1.70;;;;;;;3.62;91.43;98716.72;5112615;27;20354;-73
2021/05/06 01:05:10;;;;;;;1.07;0.97;;;;;;;3.75;91.81;98724.66;5095551;28;20205;-72
2021/05/06 01:07:45;;;;;;;1.70;1.60;;;;;;;3.50;92.09;98711.47;5104182;27;20664;-67
2021/05/06 01:13:03;;;;;;;2.83;0.63;;;;;;;3.69;91.90;98719.78;5082323;27;20284;-69
2021/05/06 01:15:32;;;;;;;0.80;0.80;;;;;;;3.65;91.57;98726.25;5098067;28;20298;-68
2021/05/06 01:17:59;;;;;;;1.90;0.80;;;;;;;3.53;91.53;98700.63;5093144;28;20207;-69
2021/05/06 01:20:27;;;;;;;2.53;2.33;;;;;;;3.63;91.62;98725.53;5109610;27;20196;-73
2021/05/06 01:22:55;;;;;;;1.13;1.03;;;;;;;3.66;91.22;98722.66;5105221;27;20255;-73
2021/05/06 01:25:22;;;;;;;1.30;1.13;;;;;;;3.62;90.80;98719.38;5104531;28;20203;-73
2021/05/06 01:27:58;;;;;;;0.77;0.77;;;;;;;3.31;90.92;98672.97;5095476;27;20677;-73
2021/05/06 01:30:32;;;;;;;0.87;0.63;;;;;;;3.63;90.98;98728.19;5089737;28;20199;-68
2021/05/06 01:33:09;;;;;;;0.30;0.30;;;;;;;3.58;90.82;98727.66;5093257;28;20284;-73
2021/05/06 01:35:40;;;;;;;0.10;0.10;;;;;;;3.50;91.28;98727.38;5100312;28;20203;-73
2021/05/06 01:38:22;;;;;;;1.23;1.13;;;;;;;3.53;91.07;98732.47;5106625;28;20266;-68
2021/05/06 01:41:14;;;;;;;0.30;0.30;;;;;;;3.47;91.19;98724.94;5100076;28;20196;-68
2021/05/06 01:43:49;;;;;;;0.40;0.40;;;;;;;3.49;91.02;98721.22;5103761;28;20239;-69
2021/05/06 01:49:24;;;;;;;0.47;0.47;;;;;;;3.32;91.37;98708.28;5088249;28;20207;-68
2021/05/06 01:57:37;;;;;;;0.50;0.50;;;;;;;3.46;91.47;98726.75;5098369;28;20676;-68
2021/05/06 02:00:21;;;;;;;0.80;0.50;;;;;;;3.39;91.52;98725.50;5112554;28;20199;-73
2021/05/06 02:02:54;;;;;;;0.40;0.40;;;;;;;3.42;91.71;98723.47;5093354;28;20709;-72
2021/05/06 02:05:29;;;;;;;0.40;0.40;;;;;;;3.23;91.23;98699.19;5097267;28;20199;-72
2021/05/06 02:07:57;;;;;;;0.30;0.30;;;;;;;3.42;91.45;98723.47;5115966;28;20873;-68
2021/05/06 02:10:32;;;;;;;0.40;0.40;;;;;;;3.29;91.03;98695.25;5103442;28;20204;-68
2021/05/06 02:13:01;;;;;;;0.57;0.40;;;;;;;3.43;91.21;98703.94;5106345;28;20199;-68
2021/05/06 02:15:33;;;;;;;0.10;0.10;;;;;;;3.55;90.68;98719.94;5105812;28;20226;-68
2021/05/06 02:18:02;;;;;;;0.20;0.20;;;;;;;3.47;91.03;98712.53;5107193;28;20196;-67
2021/05/06 02:20:30;;;;;;;0.30;0.30;;;;;;;3.42;90.90;98715.50;5094691;28;20279;-68
2021/05/06 02:23:00;;;;;;;0.30;0.30;;;;;;;3.36;91.34;98710.63;5095361;28;20569;-68
2021/05/06 02:25:28;;;;;;;0.33;0.33;;;;;;;3.41;91.27;98720.94;5102709;28;20241;-68
2021/05/06 02:27:57;;;;;;;0.17;0.17;;;;;;;3.45;91.10;98710.94;5107796;28;20230;-69
2021/05/06 02:30:25;;;;;;;0.50;0.50;;;;;;;3.31;91.27;98712.75;5112438;28;20264;-69
2021/05/06 02:32:52;;;;;;;0.87;0.43;;;;;;;3.46;91.13;98712.63;5102264;28;20261;-66
2021/05/06 02:35:19;;;;;;;0.73;0.50;;;;;;;3.41;91.12;98713.81;5099473;28;20273;-69
2021/05/06 02:37:47;;;;;;;0.50;0.50;;;;;;;3.45;91.51;98718.91;5103580;28;20197;-67
2021/05/06 02:40:14;;;;;;;0.20;0.20;;;;;;;3.36;91.12;98693.84;5092923;28;20674;-67
2021/05/06 02:42:41;;;;;;;0.30;0.30;;;;;;;3.01;91.32;98651.28;5096426;28;20219;-68
2021/05/06 02:45:11;;;;;;;0.40;0.40;;;;;;;3.35;91.26;98700.97;5092397;28;20666;-67
2021/05/06 02:47:38;;;;;;;0.10;0.10;;;;;;;3.46;91.44;98709.97;5105503;28;20196;-67
2021/05/06 02:50:10;;;;;;;0.17;0.17;;;;;;;3.49;91.21;98701.81;5107815;28;20199;-68
2021/05/06 02:52:41;;;;;;;0.20;0.20;;;;;;;3.46;91.25;98708.19;5109048;28;20626;-68
2021/05/06 02:55:13;;;;;;;0.20;0.20;;;;;;;3.42;91.21;98704.91;5095405;28;20284;-68
2021/05/06 02:57:44;;;;;;;1.20;1.10;;;;;;;3.40;91.04;98698.84;5108543;28;20669;-68
2021/05/06 03:02:59;;;;;;;1.43;1.40;;;;;;;3.49;91.63;98707.97;5111672;28;21038;-68
2021/05/06 03:05:28;;;;;;;0.30;0.30;;;;;;;3.50;91.55;98712.31;5100167;28;20260;-68
2021/05/06 03:08:06;;;;;;;3.03;2.83;;;;;;;3.51;91.20;98697.22;5102106;28;20471;-68
2021/05/06 03:24:16;;;;;;;0.80;0.80;;;;;;;3.48;91.56;98731.94;5096776;27;20644;-68
2021/05/06 03:26:44;;;;;;;0.50;0.50;;;;;;;3.50;91.52;98730.88;5093170;28;20250;-68
2021/05/06 03:29:14;;;;;;;0.50;0.50;;;;;;;3.57;91.49;98718.00;5098987;27;20207;-67
2021/05/06 03:32:02;;;;;;;0.50;0.50;;;;;;;3.62;91.64;98723.81;5100546;28;20207;-68
2021/05/06 03:43:12;;;;;;;0.20;0.20;;;;;;;3.39;91.92;98723.69;5100450;27;20235;-66
2021/05/06 03:46:27;;;;;;;0.50;0.33;;;;;;;3.45;92.29;98724.22;5093627;28;20192;-66
2021/05/06 04:17:01;;;;;;;0.60;0.50;;;;;;;3.54;91.73;98728.84;5103185;28;20223;-67
2021/05/06 04:28:01;;;;;;;0.50;0.20;;;;;;;3.71;91.66;98729.34;5102584;28;20191;-68
2021/05/06 04:30:52;;;;;;;0.50;0.50;;;;;;;3.72;91.32;98731.03;5100432;28;20235;-67
2021/05/06 04:36:09;;;;;;;0.57;0.57;;;;;;;3.77;91.43;98736.00;5102962;28;20221;-67
2021/05/06 04:38:37;;;;;;;0.50;0.50;;;;;;;3.61;91.80;98719.47;5102868;28;20207;-67
2021/05/06 04:41:21;;;;;;;231.73;124.93;;;;;;;3.82;91.83;98739.16;5101361;27;20898;-67
2021/05/06 04:55:05;;;;;;;0.70;0.70;;;;;;;3.97;92.26;98763.75;5101913;27;20283;-66
2021/05/06 05:05:48;;;;;;;0.97;0.97;;;;;;;4.07;91.31;98766.59;5097917;28;20195;-67
2021/05/06 05:08:17;;;;;;;0.60;0.60;;;;;;;4.12;91.08;98772.41;5094724;28;20578;-67
2021/05/06 05:11:00;;;;;;;1.00;1.00;;;;;;;4.13;91.17;98763.50;5096936;28;20222;-71
2021/05/06 05:13:49;;;;;;;1.17;1.00;;;;;;;4.12;90.65;98767.09;5091889;28;20206;-71
2021/05/06 05:24:42;;;;;;;0.70;0.70;;;;;;;4.14;90.63;98770.50;5095457;28;20242;-72
2021/05/06 05:27:10;;;;;;;0.57;0.57;;;;;;;3.89;90.50;98724.47;5096755;28;20222;-71
2021/05/06 05:29:38;;;;;;;0.50;0.50;;;;;;;4.14;90.61;98778.47;5096361;28;20811;-71
2021/05/06 05:32:05;;;;;;;0.97;0.80;;;;;;;3.80;90.61;98751.72;5098922;28;20276;-68
2021/05/06 05:34:36;;;;;;;0.90;0.90;;;;;;;3.82;90.82;98754.25;5101114;28;20537;-69
2021/05/06 05:37:03;;;;;;;1.00;0.90;;;;;;;3.88;90.61;98767.91;5097482;27;20290;-68
2021/05/06 05:39:36;;;;;;;2.60;0.60;;;;;;;4.05;90.86;98794.13;5094518;28;21899;-68
2021/05/06 05:42:14;;;;;;;1.07;0.90;;;;;;;4.12;90.87;98794.50;5089893;28;20198;-67
2021/05/06 05:55:43;;;;;;;0.60;0.60;;;;;;;4.15;90.50;98790.78;5094904;28;20571;-67
2021/05/06 05:58:10;;;;;;;0.90;0.90;;;;;;;4.08;90.71;98792.19;5091764;28;20278;-69
2021/05/06 06:00:39;;;;;;;0.50;0.50;;;;;;;4.20;90.72;98802.75;5097499;28;20214;-68
2021/05/06 06:03:06;;;;;;;0.93;0.80;;;;;;;4.05;90.66;98762.25;5094207;28;20323;-69
2021/05/06 06:05:33;;;;;;;1.50;0.90;;;;;;;4.26;90.67;98797.00;5096122;28;20199;-68
2021/05/06 06:08:01;;;;;;;1.00;1.00;;;;;;;4.32;90.34;98804.53;5096081;28;20215;-69
2021/05/06 06:10:28;;;;;;;0.77;0.77;;;;;;;4.23;90.71;98802.53;5098323;28;20412;-69
2021/05/06 06:12:55;;;;;;;0.70;0.70;;;;;;;4.29;90.68;98806.56;5100186;28;20283;-67
2021/05/06 06:15:32;;;;;;;1.00;0.80;;;;;;;4.35;90.24;98816.75;5090347;28;20215;-68
2021/05/06 06:18:11;;;;;;;0.87;0.70;;;;;;;4.41;90.35;98810.97;5093858;28;20385;-68
2021/05/06 06:20:41;;;;;;;1.17;0.60;;;;;;;4.34;90.66;98809.75;5094239;28;20264;-68
2021/05/06 06:23:09;;;;;;;1.43;0.90;;;;;;;4.40;90.41;98806.63;5106440;28;20204;-69
2021/05/06 06:25:36;;;;;;;0.70;0.70;;;;;;;4.39;89.79;98823.53;5105001;28;20215;-69
2021/05/06 06:28:07;;;;;;;2.27;0.80;;;;;;;4.38;90.28;98824.50;5095809;28;20219;-69
2021/05/06 06:30:36;;;;;;;0.90;0.90;;;;;;;4.43;90.29;98818.84;5095489;28;20204;-69
2021/05/06 06:33:03;;;;;;;1.27;0.93;;;;;;;4.42;89.96;98817.13;5091225;28;20208;-68
2021/05/06 06:35:31;;;;;;;1.07;0.83;;;;;;;4.43;90.02;98825.00;5101229;28;20207;-69
2021/05/06 06:38:04;;;;;;;0.80;0.80;;;;;;;4.36;89.67;98802.50;5091179;28;20197;-69
2021/05/06 06:40:31;;;;;;;0.93;0.80;;;;;;;4.56;89.79;98822.25;5091751;28;20192;-69
2021/05/06 06:43:03;;;;;;;0.53;0.53;;;;;;;4.58;89.85;98825.66;5095520;28;20567;-68
2021/05/06 06:45:31;;;;;;;2.13;1.00;;;;;;;4.44;89.75;98824.03;5094777;28;20200;-69
2021/05/06 06:47:58;;;;;;;0.77;0.77;;;;;;;4.60;89.62;98832.59;5108267;28;20246;-68
2021/05/06 06:50:25;;;;;;;0.80;0.80;;;;;;;4.61;89.71;98833.44;5103956;28;20552;-68
2021/05/06 06:52:53;;;;;;;1.00;1.00;;;;;;;4.68;89.82;98834.66;5085296;28;20972;-68
2021/05/06 06:55:21;;;;;;;1.97;1.37;;;;;;;4.35;89.24;98768.91;5096444;28;20193;-68
2021/05/06 06:57:48;;;;;;;0.70;0.70;;;;;;;4.59;89.56;98840.63;5097055;28;20218;-67
2021/05/06 07:00:16;;;;;;;0.93;0.80;;;;;;;4.71;89.84;98844.22;5089108;28;20196;-69
2021/05/06 07:02:43;;;;;;;0.83;0.80;;;;;;;4.80;89.28;98841.72;5090031;28;20220;-67
2021/05/06 07:05:11;;;;;;;0.80;0.80;;;;;;;4.84;89.18;98847.66;5086946;28;20220;-69
2021/05/06 07:07:42;;;;;;;0.67;0.60;;;;;;;4.96;88.13;98849.41;5094953;28;20191;-67
2021/05/06 07:10:11;;;;;;;0.90;0.90;;;;;;;4.86;87.56;98848.38;5099687;28;20196;-68
2021/05/06 07:12:38;;;;;;;1.50;0.80;;;;;;;4.73;88.14;98850.28;5100214;28;20200;-68
2021/05/06 07:15:08;;;;;;;0.87;0.80;;;;;;;4.63;88.30;98860.75;5103102;28;20189;-68
2021/05/06 07:17:35;;;;;;;3.83;0.73;;;;;;;4.75;88.38;98857.16;5101205;28;20208;-69
2021/05/06 07:20:03;;;;;;;0.77;0.70;;;;;;;4.73;88.44;98861.75;5099557;28;20427;-68
2021/05/06 07:22:30;;;;;;;2.67;0.70;;;;;;;4.89;87.87;98874.72;5108298;28;20662;-68
2021/05/06 07:24:58;;;;;;;1.60;0.83;;;;;;;4.88;87.49;98863.25;5106469;28;20219;-68
2021/05/06 07:27:28;;;;;;;0.70;0.70;;;;;;;4.74;87.59;98862.59;5106312;28;20192;-69
2021/05/06 07:30:03;;;;;;;1.03;0.90;;;;;;;4.80;87.97;98870.13;5110805;28;20768;-68
2021/05/06 07:32:32;;;;;;;1.47;0.80;;;;;;;4.79;88.15;98869.25;5105009;28;20291;-70
2021/05/06 07:35:01;;;;;;;1.03;0.90;;;;;;;4.66;87.92;98876.47;5097964;28;20184;-70
2021/05/06 07:37:29;;;;;;;0.90;0.90;;;;;;;4.73;88.14;98876.84;5104959;28;20204;-69
2021/05/06 07:40:00;;;;;;;1.23;0.80;;;;;;;4.80;88.62;98875.44;5109712;27;20568;-69
2021/05/06 07:42:30;;;;;;;0.80;0.80;;;;;;;4.89;88.18;98880.06;5095087;28;20707;-69
2021/05/06 07:44:59;;;;;;;2.87;0.70;;;;;;;4.93;87.86;98873.56;5096168;28;20215;-69
2021/05/06 07:47:29;;;;;;;3.40;0.70;;;;;;;5.03;87.46;98887.03;5106029;27;20704;-69
2021/05/06 07:50:01;;;;;;;0.83;0.77;;;;;;;5.11;87.11;98884.63;5105234;28;20222;-69
2021/05/06 07:52:33;;;;;;;0.67;0.67;;;;;;;5.15;86.47;98889.59;5104936;28;20204;-70
2021/05/06 07:55:03;;;;;;;0.70;0.70;;;;;;;4.93;86.90;98894.84;5109829;28;20467;-69
2021/05/06 07:57:31;;;;;;;1.90;0.90;;;;;;;5.05;86.60;98899.22;5104949;27;20197;-70
2021/05/06 07:59:59;;;;;;;0.77;0.53;;;;;;;5.02;86.37;98902.13;5108057;28;20204;-70
2021/05/06 08:02:26;;;;;;;1.23;0.80;;;;;;;5.01;86.23;98905.75;5109414;28;20264;-70
2021/05/06 08:04:53;;;;;;;0.43;0.43;;;;;;;4.93;86.55;98902.81;5107646;28;20217;-70
2021/05/06 08:07:20;;;;;;;3.10;0.67;;;;;;;5.04;86.32;98910.00;5100911;28;20627;-70
2021/05/06 08:09:49;;;;;;;0.60;0.60;;;;;;;4.95;86.28;98907.06;5101539;28;20619;-70
2021/05/06 08:12:16;;;;;;;1.03;0.83;;;;;;;4.79;86.92;98916.28;5109144;28;20228;-70
2021/05/06 08:14:44;;;;;;;0.73;0.67;;;;;;;4.85;86.91;98918.47;5097124;28;20371;-70
2021/05/06 08:17:12;;;;;;;0.80;0.80;;;;;;;4.87;86.42;98916.56;5110428;28;20701;-70
2021/05/06 08:19:41;;;;;;;0.63;0.57;;;;;;;4.92;87.20;98917.09;5104702;28;20203;-70
2021/05/06 08:22:08;;;;;;;0.60;0.60;;;;;;;5.00;86.87;98920.03;5109351;28;20275;-70
2021/05/06 08:24:35;;;;;;;1.00;0.83;;;;;;;5.03;87.01;98918.94;5103176;28;20647;-70
2021/05/06 08:27:07;;;;;;;0.83;0.83;;;;;;;4.95;87.07;98933.66;5106965;28;20568;-71
2021/05/06 08:29:35;;;;;;;0.60;0.60;;;;;;;4.81;86.42;98890.41;5107453;28;20196;-70
2021/05/06 08:32:03;;;;;;;0.70;0.70;;;;;;;5.09;86.03;98935.28;5110306;28;20220;-70
2021/05/06 08:34:31;;;;;;;0.70;0.70;;;;;;;5.02;85.76;98944.69;5105737;28;20188;-70
2021/05/06 08:36:58;;;;;;;0.63;0.63;;;;;;;4.97;86.34;98936.22;5096182;28;20681;-71
2021/05/06 08:39:25;;;;;;;0.60;0.60;;;;;;;5.15;85.82;98945.47;5096926;28;20225;-70
2021/05/06 08:41:54;;;;;;;0.73;0.73;;;;;;;4.89;85.79;98904.84;5104964;28;20227;-70
2021/05/06 08:44:26;;;;;;;0.93;0.43;;;;;;;5.22;85.51;98944.06;5094699;28;20228;-70
2021/05/06 08:47:03;;;;;;;0.57;0.57;;;;;;;5.18;85.50;98950.56;5099068;28;20276;-70
2021/05/06 08:49:33;;;;;;;0.37;0.37;;;;;;;4.95;85.39;98901.75;5094551;28;20662;-70
2021/05/06 08:52:04;;;;;;;0.57;0.57;;;;;;;5.19;85.34;98951.41;5105985;28;20196;-70
2021/05/06 08:54:31;;;;;;;0.60;0.60;;;;;;;5.44;84.95;98961.91;5102134;28;20184;-71
2021/05/06 08:56:59;;;;;;;2.20;0.80;;;;;;;5.52;84.86;98953.38;5096113;28;20317;-71
2021/05/06 08:59:26;;;;;;;0.63;0.50;;;;;;;5.43;84.57;98946.06;5100903;28;20207;-71
2021/05/06 09:01:54;;;;;;;0.70;0.70;;;;;;;5.38;85.46;98953.53;5108613;28;20228;-71
2021/05/06 09:04:21;;;;;;;0.87;0.70;;;;;;;5.52;85.30;98969.34;5099490;28;20261;-71
2021/05/06 09:06:53;;;;;;;0.63;0.60;;;;;;;5.54;85.41;98956.75;5105465;28;20294;-71
2021/05/06 09:09:21;;;;;;;1.50;0.90;;;;;;;5.58;84.75;98972.38;5101343;28;20256;-70
2021/05/06 09:11:52;;;;;;;0.80;0.80;;;;;;;5.73;85.12;98970.34;5105291;28;20200;-71
2021/05/06 09:14:19;;;;;;;0.83;0.80;;;;;;;5.61;83.31;98974.81;5100923;28;20220;-71
2021/05/06 09:16:47;;;;;;;0.53;0.53;;;;;;;5.17;83.91;98906.28;5104871;28;20216;-71
2021/05/06 09:19:17;;;;;;;1.17;0.60;;;;;;;5.58;84.43;98968.88;5100448;28;20259;-71
2021/05/06 09:21:46;;;;;;;0.70;0.70;;;;;;;5.69;83.98;98981.34;5098714;28;20228;-71
2021/05/06 09:24:19;;;;;;;0.60;0.60;;;;;;;5.76;84.00;99001.22;5101062;28;20640;-71
2021/05/06 09:26:47;;;;;;;0.60;0.60;;;;;;;5.74;83.86;99000.47;5104650;28;20518;-70
2021/05/06 09:29:34;;;;;;;0.40;0.40;;;;;;;5.67;82.96;98999.25;5108236;28;20205;-70
2021/05/06 09:32:09;;;;;;;0.37;0.37;;;;;;;5.79;83.01;99004.50;5100095;28;20197;-71
2021/05/06 09:34:37;;;;;;;0.80;0.50;;;;;;;5.72;82.76;99019.25;5099968;28;20199;-71
2021/05/06 09:37:07;;;;;;;0.50;0.50;;;;;;;5.73;82.85;99009.44;5102672;28;20216;-71
2021/05/06 09:39:36;;;;;;;0.57;0.57;;;;;;;5.74;82.71;99011.97;5100683;28;20249;-71
2021/05/06 09:42:11;;;;;;;0.47;0.47;;;;;;;5.80;82.70;98990.19;5095949;28;20251;-71
2021/05/06 09:44:53;;;;;;;0.53;0.53;;;;;;;6.04;82.84;99008.81;5107138;28;20207;-69
2021/05/06 09:47:21;;;;;;;0.77;0.77;;;;;;;6.09;82.58;99017.31;5094041;28;20197;-69
2021/05/06 09:49:50;;;;;;;0.70;0.70;;;;;;;5.97;82.16;98991.63;5105546;28;20283;-70
2021/05/06 09:52:17;;;;;;;0.53;0.53;;;;;;;6.12;82.13;99002.88;5097052;28;20235;-69
2021/05/06 09:54:51;;;;;;;2.10;0.63;;;;;;;6.45;81.60;99023.44;5099752;28;20248;-69
2021/05/06 09:57:30;;;;;;;0.80;0.60;;;;;;;6.18;80.87;99016.63;5104213;28;20704;-70
2021/05/06 10:00:17;;;;;;;0.50;0.50;;;;;;;6.30;81.29;99030.78;5096859;28;20207;-69
2021/05/06 10:02:45;;;;;;;0.50;0.50;;;;;;;6.40;80.92;99026.44;5097815;28;20258;-70
2021/05/06 10:05:36;;;;;;;0.47;0.47;;;;;;;6.60;80.46;99032.88;5098335;28;20216;-70
2021/05/06 10:08:04;;;;;;;0.50;0.50;;;;;;;6.64;80.53;99034.31;5102841;28;20196;-69
2021/05/06 10:10:34;;;;;;;0.73;0.73;;;;;;;6.33;80.34;98963.91;5101282;28;20572;-69
2021/05/06 10:13:03;;;;;;;0.40;0.40;;;;;;;6.73;78.85;99024.72;5102632;28;20614;-69
2021/05/06 10:15:31;;;;;;;0.50;0.50;;;;;;;6.68;78.78;99040.25;5104909;28;20523;-68
2021/05/06 10:17:58;;;;;;;0.40;0.40;;;;;;;6.62;79.29;99043.41;5098512;28;20303;-68
2021/05/06 10:20:26;;;;;;;0.70;0.50;;;;;;;6.80;79.57;99033.97;5099979;28;20209;-68
2021/05/06 10:22:56;;;;;;;0.50;0.50;;;;;;;6.85;78.79;99045.13;5098782;28;20287;-69
2021/05/06 10:25:25;;;;;;;1.27;0.67;;;;;;;6.96;78.58;99047.75;5096641;28;20245;-69
2021/05/06 10:27:55;;;;;;;1.10;0.60;;;;;;;6.70;78.12;99051.66;5095510;28;20204;-69
2021/05/06 10:30:23;;;;;;;0.47;0.47;;;;;;;6.76;77.88;99059.19;5097326;28;20226;-68
2021/05/06 10:32:50;;;;;;;0.50;0.50;;;;;;;6.62;77.58;99052.25;5094363;28;20217;-69
2021/05/06 10:35:20;;;;;;;0.40;0.40;;;;;;;6.69;78.38;99065.97;5098185;28;20236;-69
2021/05/06 10:37:53;;;;;;;0.47;0.40;;;;;;;6.64;78.33;99058.31;5103425;28;20213;-69
2021/05/06 10:40:25;;;;;;;0.30;0.30;;;;;;;6.71;78.30;99072.03;5101585;28;20549;-69
2021/05/06 10:42:54;;;;;;;2.53;0.73;;;;;;;6.15;77.53;99027.50;5097549;28;20190;-69
2021/05/06 10:45:34;;;;;;;0.47;0.47;;;;;;;6.14;78.32;99035.63;5092369;28;20217;-69
2021/05/06 10:48:03;;;;;;;0.30;0.30;;;;;;;6.37;79.10;99077.31;5094426;28;20287;-69
2021/05/06 10:50:38;;;;;;;0.50;0.50;;;;;;;6.59;79.02;99086.31;5095095;28;20203;-69
2021/05/06 10:53:07;;;;;;;1.10;0.63;;;;;;;6.74;78.26;99083.31;5100187;28;20192;-69
2021/05/06 10:55:44;;;;;;;1.23;0.70;;;;;;;6.77;77.61;99100.91;5103306;27;20674;-69
2021/05/06 10:58:40;;;;;;;1.27;0.50;;;;;;;6.62;77.75;99097.59;5102969;28;20204;-69
2021/05/06 11:01:23;;;;;;;0.87;0.60;;;;;;;6.44;78.51;99099.06;5062958;28;20210;-69
2021/05/06 11:04:08;;;;;;;0.80;0.57;;;;;;;6.43;78.51;99100.88;5099972;28;20264;-69
2021/05/06 11:06:38;;;;;;;0.50;0.50;;;;;;;6.56;78.91;99099.91;5098022;28;20297;-69
2021/05/06 11:09:42;;;;;;;0.43;0.43;;;;;;;6.73;77.90;99105.59;5101821;27;20201;-69
2021/05/06 11:12:36;;;;;;;0.40;0.40;;;;;;;6.94;77.97;99111.06;5100145;28;20750;-69
2021/05/06 11:15:33;;;;;;;0.50;0.50;;;;;;;6.91;76.86;99106.00;5103574;28;20192;-69
2021/05/06 11:18:06;;;;;;;0.90;0.47;;;;;;;7.05;76.72;99118.25;5094090;28;20284;-69
2021/05/06 11:20:48;;;;;;;0.50;0.50;;;;;;;6.98;76.58;99117.88;5105707;28;20244;-69
2021/05/06 11:23:25;;;;;;;0.50;0.50;;;;;;;6.99;76.83;99111.56;5098879;28;20581;-69
2021/05/06 11:26:09;;;;;;;3.10;0.57;;;;;;;7.06;76.92;99122.63;5092524;28;20242;-69
2021/05/06 11:28:47;;;;;;;0.53;0.33;;;;;;;6.93;77.05;99124.53;5097209;27;20731;-69
2021/05/06 11:31:18;;;;;;;0.67;0.40;;;;;;;6.82;76.94;99131.59;5102669;28;20228;-68
2021/05/06 11:33:45;;;;;;;0.50;0.50;;;;;;;6.83;77.13;99116.41;5098816;28;20205;-69
2021/05/06 11:36:18;;;;;;;0.60;0.60;;;;;;;6.95;77.29;99115.44;5092565;28;20223;-68
2021/05/06 11:39:05;;;;;;;0.50;0.50;;;;;;;6.73;76.05;99054.91;5099884;28;20203;-68
2021/05/06 11:41:34;;;;;;;0.40;0.30;;;;;;;7.24;76.09;99146.97;5105434;28;20184;-69
2021/05/06 11:44:05;;;;;;;0.30;0.30;;;;;;;7.16;76.05;99147.59;5097917;28;20212;-69
2021/05/06 11:46:35;;;;;;;0.47;0.40;;;;;;;7.02;76.37;99129.13;5095613;28;20276;-69
2021/05/06 11:49:06;;;;;;;0.80;0.50;;;;;;;7.29;75.62;99158.13;5102642;28;20458;-69
2021/05/06 11:51:35;;;;;;;1.17;0.30;;;;;;;7.34;75.67;99154.13;5097380;28;20204;-69
2021/05/06 11:54:07;;;;;;;2.00;0.63;;;;;;;7.35;74.69;99157.66;5097076;28;20200;-68
2021/05/06 11:56:36;;;;;;;0.63;0.50;;;;;;;7.36;75.52;99159.38;5106074;28;20202;-69
2021/05/06 11:59:05;;;;;;;0.33;0.33;;;;;;;7.39;75.17;99165.31;5091441;28;20204;-67
2021/05/06 12:01:33;;;;;;;0.40;0.40;;;;;;;7.48;74.95;99171.72;5094476;28;20231;-68
2021/05/06 12:04:01;;;;;;;0.40;0.40;;;;;;;7.54;75.03;99163.22;5098243;27;20221;-69
2021/05/06 12:06:33;;;;;;;0.50;0.50;;;;;;;7.50;75.33;99169.78;5089680;28;20650;-69
2021/05/06 12:09:02;;;;;;;0.50;0.50;;;;;;;7.65;74.87;99160.53;5100215;28;20185;-69
2021/05/06 12:11:34;;;;;;;2.00;0.50;;;;;;;7.78;74.29;99160.38;5106368;28;20540;-68
2021/05/06 12:14:01;;;;;;;0.50;0.50;;;;;;;7.88;73.69;99165.81;5103889;27;20195;-68
2021/05/06 12:16:28;;;;;;;0.40;0.40;;;;;;;7.76;73.43;99171.19;5108832;28;20525;-68
2021/05/06 12:19:02;;;;;;;0.47;0.30;;;;;;;7.43;73.13;99144.53;5108969;28;20225;-69
2021/05/06 12:21:33;;;;;;;0.37;0.37;;;;;;;7.52;73.87;99173.16;5101139;28;20244;-69
2021/05/06 12:24:00;;;;;;;0.40;0.40;;;;;;;7.55;74.68;99178.25;5099639;28;20211;-70
2021/05/06 12:26:28;;;;;;;0.50;0.50;;;;;;;7.48;74.14;99174.41;5103791;28;20209;-69
2021/05/06 12:28:56;;;;;;;0.47;0.47;;;;;;;7.62;73.19;99166.09;5105332;28;20246;-69
2021/05/06 12:31:27;;;;;;;0.50;0.50;;;;;;;7.83;74.08;99182.22;5092858;28;20195;-69
2021/05/06 12:33:54;;;;;;;0.30;0.30;;;;;;;7.59;72.42;99182.38;5099627;28;20195;-70
2021/05/06 12:36:23;;;;;;;0.90;0.50;;;;;;;7.81;72.91;99180.66;5097205;28;20205;-70
2021/05/06 12:38:51;;;;;;;2.10;0.57;;;;;;;7.81;72.85;99181.50;5106296;28;21115;-69
2021/05/06 12:41:19;;;;;;;0.40;0.40;;;;;;;7.77;72.11;99183.56;5099722;28;20294;-69
2021/05/06 12:43:51;;;;;;;0.53;0.53;;;;;;;7.84;72.14;99177.72;5097623;28;20190;-69
2021/05/06 12:46:25;;;;;;;0.40;0.40;;;;;;;7.97;72.41;99189.97;5102229;28;20200;-69
2021/05/06 12:48:55;;;;;;;0.33;0.33;;;;;;;8.02;72.62;99194.94;5092139;28;20199;-69
2021/05/06 12:51:28;;;;;;;51.47;18.77;;;;;;;8.02;70.34;99178.91;5101801;27;20199;-69
2021/05/06 12:54:02;;;;;;;8.73;4.43;;;;;;;7.99;71.35;99174.66;5105293;28;20197;-68
2021/05/06 12:56:31;;;;;;;1.50;1.30;;;;;;;8.13;71.00;99200.22;5106122;28;20213;-69
2021/05/06 12:59:22;;;;;;;0.90;0.70;;;;;;;7.95;71.36;99204.41;5099922;28;20570;-69
2021/05/06 13:01:50;;;;;;;0.70;0.70;;;;;;;7.98;71.65;99206.84;5097555;28;20531;-70
2021/05/06 13:04:18;;;;;;;0.53;0.53;;;;;;;7.88;70.60;99197.88;5100123;28;20226;-69
2021/05/06 13:07:00;;;;;;;0.50;0.50;;;;;;;7.99;71.43;99203.22;5102097;28;20196;-69
2021/05/06 13:09:39;;;;;;;0.50;0.50;;;;;;;8.06;71.54;99212.41;5106500;28;20260;-69
2021/05/06 13:12:12;;;;;;;0.70;0.67;;;;;;;8.08;70.65;99205.97;5098041;28;20577;-69
2021/05/06 13:14:47;;;;;;;0.70;0.70;;;;;;;8.21;70.69;99221.84;5097477;28;20652;-69
2021/05/06 13:17:29;;;;;;;0.50;0.50;;;;;;;8.38;70.48;99224.00;5096455;28;20224;-70
2021/05/06 13:19:58;;;;;;;0.50;0.50;;;;;;;8.28;68.97;99220.38;5102742;28;20200;-69
2021/05/06 13:22:27;;;;;;;0.50;0.50;;;;;;;7.98;68.91;99198.84;5097946;28;20209;-69
2021/05/06 13:24:54;;;;;;;0.40;0.40;;;;;;;7.83;69.94;99192.06;5099603;28;20617;-69
2021/05/06 13:27:24;;;;;;;0.30;0.30;;;;;;;8.11;69.75;99226.25;5092633;28;20570;-69
2021/05/06 13:29:59;;;;;;;0.73;0.53;;;;;;;8.09;70.33;99234.41;5100303;28;20192;-69
2021/05/06 13:32:34;;;;;;;0.50;0.50;;;;;;;7.92;69.85;99215.34;5106813;28;20199;-68
2021/05/06 13:35:03;;;;;;;0.50;0.50;;;;;;;8.16;70.43;99239.22;5096296;28;20196;-68
2021/05/06 13:37:41;;;;;;;0.40;0.40;;;;;;;8.14;69.73;99241.19;5097892;28;20621;-67
2021/05/06 13:40:10;;;;;;;0.30;0.30;;;;;;;7.98;69.98;99202.38;5095998;28;20256;-68
2021/05/06 13:42:39;;;;;;;0.43;0.43;;;;;;;7.96;69.71;99249.75;5104217;28;20570;-68
2021/05/06 13:45:09;;;;;;;1.47;0.60;;;;;;;7.95;69.26;99252.53;5101031;28;20215;-68
2021/05/06 13:47:36;;;;;;;0.53;0.53;;;;;;;7.97;69.87;99253.28;5094429;28;20727;-69
2021/05/06 13:50:05;;;;;;;1.07;0.40;;;;;;;7.80;69.15;99230.56;5090586;28;20675;-69
2021/05/06 13:52:32;;;;;;;0.80;0.40;;;;;;;7.91;69.92;99261.75;5090084;28;20828;-68
2021/05/06 13:55:02;;;;;;;0.50;0.50;;;;;;;7.98;70.12;99253.16;5092297;28;20551;-68
2021/05/06 13:57:32;;;;;;;0.40;0.40;;;;;;;7.69;69.45;99246.63;5090959;28;20276;-69
2021/05/06 13:59:59;;;;;;;0.40;0.40;;;;;;;7.76;69.05;99271.88;5094410;28;20201;-69
2021/05/06 14:02:28;;;;;;;0.30;0.30;;;;;;;7.91;70.11;99261.75;5091164;28;20774;-69
2021/05/06 14:04:56;;;;;;;0.50;0.50;;;;;;;7.66;68.97;99271.78;5094361;28;20239;-69
2021/05/06 14:07:24;;;;;;;0.40;0.37;;;;;;;7.45;70.26;99276.97;5092122;28;20212;-69
2021/05/06 14:09:53;;;;;;;1.57;0.80;;;;;;;7.33;69.66;99277.91;5087097;28;20221;-69
2021/05/06 14:12:21;;;;;;;0.70;0.60;;;;;;;7.20;70.74;99284.34;5089328;27;20413;-70
2021/05/06 14:14:50;;;;;;;0.50;0.50;;;;;;;7.20;70.60;99285.19;5090630;28;20186;-69
2021/05/06 14:17:18;;;;;;;0.50;0.50;;;;;;;7.36;70.92;99283.06;5090757;28;20279;-69
2021/05/06 14:19:45;;;;;;;1.90;0.47;;;;;;;7.44;70.15;99287.78;5093065;28;20206;-69
2021/05/06 14:22:13;;;;;;;0.60;0.60;;;;;;;7.44;70.37;99293.97;5092531;28;20211;-69
2021/05/06 14:24:40;;;;;;;1.43;0.60;;;;;;;7.36;70.46;99298.22;5095042;28;20708;-69
2021/05/06 14:27:07;;;;;;;0.67;0.50;;;;;;;7.36;70.53;99303.56;5095584;28;20253;-69
2021/05/06 14:29:36;;;;;;;0.60;0.47;;;;;;;7.19;70.27;99307.53;5095860;28;20211;-70
2021/05/06 14:32:03;;;;;;;0.80;0.53;;;;;;;7.02;70.76;99305.28;5104296;28;20207;-68
2021/05/06 14:34:31;;;;;;;0.60;0.60;;;;;;;7.33;70.29;99309.13;5099560;28;20206;-70